Amaicha del Valle, Argentina
Current Conditions -  °F | °C
As of 6:00 PM on Friday 24 Oct 2014 (Local Time) from SANT Reporting Station
Clear Clear  
Wind Chill: 37°   Ceiling: Unl
Heat Index: 37°   Visibility: 6mi
Dew Point: 13°   Wind: 5mph
Humidity: 24%   Direction: 180°S
Pressure: 29.83"   Gusts: NA
Location:  26.73°S, 65.8°W
Report Text: SANT 242100Z 18004KT CAVOK 37/13 Q1010
Loading
Personal Weather Stations






























Interactive Weather Map
Tropical Storm Tracking
New forecast layout! Learn more

10-Day Weather Forecast

Advertisements
Track Severe Weather on mobile